Time;durP1;ratioP1;P1;durP2;ratioP2;P2;SDS_P1;SDS_P2;PMS_P1;PMS_P2;Temp;Humidity;BMP_temperature;BMP_pressure;BME280_temperature;BME280_humidity;BME280_pressure;Samples;Min_cycle;Max_cycle;Signal;HPM_P1;HPM_P2
2023/04/12 00:02:13;;;;;;;7.00;2.30;;;6.50;99.90;;;;;;5060905;28;20047;-86
2023/04/12 00:04:39;;;;;;;6.53;2.25;;;6.50;99.90;;;;;;5057777;28;20033;-86
2023/04/12 00:07:05;;;;;;;8.50;2.15;;;6.50;99.90;;;;;;5058991;28;20044;-86
2023/04/12 00:09:31;;;;;;;7.65;1.80;;;6.50;99.90;;;;;;5058337;28;20370;-86
2023/04/12 00:11:58;;;;;;;9.75;1.95;;;6.60;99.90;;;;;;5060608;28;20029;-83
2023/04/12 00:14:25;;;;;;;3.70;1.98;;;6.60;99.90;;;;;;5061249;28;20029;-85
2023/04/12 00:16:51;;;;;;;9.40;1.90;;;6.60;99.90;;;;;;5062964;28;20021;-86
2023/04/12 00:19:18;;;;;;;7.10;2.53;;;6.60;99.90;;;;;;5058852;28;20115;-84
2023/04/12 00:21:43;;;;;;;10.45;2.05;;;6.60;99.90;;;;;;5056410;28;20047;-85
2023/04/12 00:24:09;;;;;;;12.52;2.22;;;6.50;99.90;;;;;;5059084;28;20044;-85
2023/04/12 00:26:34;;;;;;;8.05;2.00;;;6.50;99.90;;;;;;5052816;28;20040;-86
2023/04/12 00:29:00;;;;;;;7.32;1.98;;;6.50;99.90;;;;;;5061775;28;20044;-86
2023/04/12 00:31:27;;;;;;;8.05;2.30;;;6.50;99.90;;;;;;5064123;28;20480;-87
2023/04/12 00:33:53;;;;;;;5.43;1.73;;;6.50;99.90;;;;;;5060571;28;20031;-85
2023/04/12 00:36:19;;;;;;;7.05;2.70;;;6.50;99.90;;;;;;5052923;28;20016;-87
2023/04/12 00:38:45;;;;;;;6.75;2.25;;;6.50;99.90;;;;;;5062521;28;20033;-85
2023/04/12 00:41:13;;;;;;;6.13;1.95;;;6.50;99.90;;;;;;5059893;28;20049;-85
2023/04/12 00:43:41;;;;;;;6.13;1.85;;;6.50;99.90;;;;;;5050992;28;20033;-84
2023/04/12 00:46:07;;;;;;;4.90;2.00;;;6.50;99.90;;;;;;5059678;28;20123;-86
2023/04/12 00:48:33;;;;;;;14.05;2.33;;;6.50;99.90;;;;;;5058748;28;20603;-86
2023/04/12 00:51:00;;;;;;;6.65;1.65;;;6.50;99.90;;;;;;5059126;28;20090;-85
2023/04/12 00:53:27;;;;;;;10.15;2.22;;;6.50;99.90;;;;;;5064123;28;20032;-84
2023/04/12 00:55:54;;;;;;;6.95;2.17;;;6.60;99.90;;;;;;5061646;28;20032;-84
2023/04/12 00:58:23;;;;;;;7.00;2.25;;;6.50;99.90;;;;;;5058620;28;20132;-86
2023/04/12 01:00:51;;;;;;;8.00;2.97;;;6.60;99.90;;;;;;5059086;28;20029;-83
2023/04/12 01:03:29;;;;;;;4.57;1.70;;;6.60;99.90;;;;;;5062369;28;20036;-84
2023/04/12 01:06:28;;;;;;;3.67;1.90;;;6.60;99.90;;;;;;5060093;28;20517;-85
2023/04/12 01:09:15;;;;;;;9.15;2.25;;;6.60;99.90;;;;;;5055311;28;20037;-85
2023/04/12 01:12:04;;;;;;;7.97;2.22;;;6.60;99.90;;;;;;5050809;28;20389;-86
2023/04/12 01:14:42;;;;;;;6.78;2.83;;;6.60;99.90;;;;;;5060603;28;20027;-85
2023/04/12 01:17:13;;;;;;;6.00;1.92;;;6.60;99.90;;;;;;5062230;28;20050;-84
2023/04/12 01:19:44;;;;;;;9.52;2.20;;;6.60;99.90;;;;;;5061430;28;20020;-86
2023/04/12 01:22:54;;;;;;;9.13;2.28;;;6.60;99.90;;;;;;5067886;28;20024;-85
2023/04/12 01:25:26;;;;;;;7.03;2.03;;;6.60;99.90;;;;;;5065913;28;20093;-84
2023/04/12 01:27:59;;;;;;;9.63;2.00;;;6.70;99.90;;;;;;5067662;28;20064;-84
2023/04/12 01:30:28;;;;;;;7.70;2.45;;;6.70;99.90;;;;;;5063627;28;20233;-85
2023/04/12 01:32:55;;;;;;;5.43;1.83;;;6.70;99.90;;;;;;5067477;28;20370;-84
2023/04/12 01:35:28;;;;;;;4.93;2.20;;;6.80;99.90;;;;;;5063421;28;20156;-85
2023/04/12 01:37:56;;;;;;;7.75;2.17;;;6.80;99.90;;;;;;5060555;28;20035;-84
2023/04/12 01:40:23;;;;;;;6.15;2.03;;;6.80;99.90;;;;;;5065768;28;20070;-83
2023/04/12 01:42:48;;;;;;;7.10;2.15;;;6.90;99.90;;;;;;5063406;28;20033;-86
2023/04/12 01:45:14;;;;;;;5.95;1.58;;;6.80;99.90;;;;;;5065930;28;20039;-85
2023/04/12 01:47:40;;;;;;;5.38;2.13;;;6.80;99.90;;;;;;5066251;28;20025;-85
2023/04/12 01:50:08;;;;;;;8.98;1.70;;;6.80;99.90;;;;;;5064177;28;20024;-85
2023/04/12 01:52:40;;;;;;;6.13;1.90;;;6.80;99.90;;;;;;5063046;28;20553;-84
2023/04/12 01:55:08;;;;;;;6.15;2.00;;;6.90;99.90;;;;;;5057990;28;20533;-84
2023/04/12 01:57:36;;;;;;;6.93;2.00;;;6.80;99.90;;;;;;5065958;28;20406;-84
2023/04/12 02:00:05;;;;;;;7.50;2.53;;;6.90;99.90;;;;;;5066775;28;20031;-85
2023/04/12 02:02:31;;;;;;;7.80;2.72;;;6.90;99.90;;;;;;5068415;28;20379;-86
2023/04/12 02:04:59;;;;;;;5.88;2.10;;;6.90;99.90;;;;;;5061550;28;20513;-84
2023/04/12 02:07:24;;;;;;;3.97;1.50;;;6.90;99.90;;;;;;5063240;28;20033;-84
2023/04/12 02:09:50;;;;;;;8.30;1.90;;;6.90;99.90;;;;;;5057991;28;20028;-84
2023/04/12 02:12:16;;;;;;;6.50;2.40;;;6.90;99.90;;;;;;5057652;28;20032;-84
2023/04/12 02:14:41;;;;;;;6.72;2.22;;;6.90;99.90;;;;;;5067961;28;20115;-84
2023/04/12 02:17:07;;;;;;;4.57;2.08;;;6.90;99.90;;;;;;5059431;28;20059;-86
2023/04/12 02:19:33;;;;;;;13.85;1.95;;;6.90;99.90;;;;;;5064425;28;20024;-84
2023/04/12 02:22:01;;;;;;;7.47;2.17;;;7.00;99.90;;;;;;5062173;28;20032;-83
2023/04/12 02:24:27;;;;;;;4.88;2.00;;;7.00;99.90;;;;;;5062823;28;20103;-85
2023/04/12 02:26:53;;;;;;;5.85;2.00;;;7.00;99.90;;;;;;5058214;28;20497;-84
2023/04/12 02:29:19;;;;;;;3.42;1.30;;;6.90;99.90;;;;;;5060297;28;20393;-84
2023/04/12 02:31:45;;;;;;;6.00;1.95;;;6.90;99.90;;;;;;5064930;28;20040;-84
2023/04/12 02:34:12;;;;;;;7.85;2.13;;;6.90;99.90;;;;;;5065991;28;20499;-85
2023/04/12 02:36:38;;;;;;;7.20;2.47;;;6.90;99.90;;;;;;5063047;28;20107;-84
2023/04/12 02:39:04;;;;;;;9.23;2.15;;;7.00;99.90;;;;;;5059945;28;20115;-85
2023/04/12 02:41:29;;;;;;;4.90;1.88;;;7.00;99.90;;;;;;5062416;28;20126;-83
2023/04/12 02:43:56;;;;;;;7.15;3.33;;;7.00;99.90;;;;;;5062571;28;20481;-84
2023/04/12 02:46:23;;;;;;;8.35;2.15;;;7.00;99.90;;;;;;5061447;28;20397;-84
2023/04/12 02:48:50;;;;;;;5.85;2.17;;;7.00;99.90;;;;;;5065198;28;20032;-86
2023/04/12 02:51:15;;;;;;;6.95;1.88;;;7.00;99.90;;;;;;5062210;28;20025;-84
2023/04/12 02:53:41;;;;;;;5.43;1.60;;;7.00;99.90;;;;;;5059413;28;20420;-83
2023/04/12 02:56:08;;;;;;;13.98;2.22;;;7.00;99.90;;;;;;5064071;28;20038;-84
2023/04/12 02:58:35;;;;;;;4.88;1.88;;;7.00;99.90;;;;;;5066067;28;20036;-85
2023/04/12 03:01:00;;;;;;;7.25;1.95;;;7.00;99.90;;;;;;5065101;28;20025;-84
2023/04/12 03:03:30;;;;;;;15.00;1.40;;;7.00;99.90;;;;;;5063587;28;20086;-85
2023/04/12 03:05:57;;;;;;;8.88;2.03;;;7.00;99.90;;;;;;5060357;28;20039;-84
2023/04/12 03:08:23;;;;;;;7.78;2.72;;;7.00;99.90;;;;;;5063082;28;20264;-84
2023/04/12 03:10:48;;;;;;;12.02;2.00;;;7.00;99.90;;;;;;5064001;28;20029;-86
2023/04/12 03:13:14;;;;;;;9.00;2.13;;;7.00;99.90;;;;;;5062489;28;20024;-85
2023/04/12 03:15:40;;;;;;;5.43;1.70;;;7.00;99.90;;;;;;5063938;28;20032;-84
2023/04/12 03:18:05;;;;;;;11.77;1.90;;;7.00;99.90;;;;;;5056788;28;20041;-84
2023/04/12 03:20:32;;;;;;;9.82;2.17;;;7.00;99.90;;;;;;5061200;28;20028;-84
2023/04/12 03:22:59;;;;;;;7.93;2.25;;;7.00;99.90;;;;;;5063714;28;20032;-85
2023/04/12 03:25:26;;;;;;;6.07;1.95;;;7.00;99.90;;;;;;5058484;28;20032;-85
2023/04/12 03:27:51;;;;;;;6.53;2.03;;;7.00;99.90;;;;;;5062916;28;20024;-85
2023/04/12 03:30:17;;;;;;;4.75;1.90;;;6.90;99.90;;;;;;5062508;28;20036;-82
2023/04/12 03:32:44;;;;;;;5.93;1.63;;;6.90;99.90;;;;;;5054530;28;20024;-85
2023/04/12 03:35:10;;;;;;;7.97;1.77;;;6.90;99.90;;;;;;5057580;28;20329;-84
2023/04/12 03:37:39;;;;;;;8.60;2.05;;;6.90;99.90;;;;;;5064657;28;20052;-85
2023/04/12 03:40:06;;;;;;;10.90;1.90;;;6.90;99.90;;;;;;5059013;28;20328;-84
2023/04/12 03:42:31;;;;;;;9.75;2.53;;;7.00;99.90;;;;;;5053744;28;20025;-85
2023/04/12 03:44:57;;;;;;;4.90;1.60;;;7.00;99.90;;;;;;5055587;28;20035;-85
2023/04/12 03:47:22;;;;;;;6.22;1.95;;;6.90;99.90;;;;;;5064258;28;20032;-85
2023/04/12 03:49:54;;;;;;;7.28;1.90;;;6.90;99.90;;;;;;5056148;28;20114;-84
2023/04/12 03:52:19;;;;;;;7.22;2.40;;;7.00;99.90;;;;;;5060019;28;20552;-85
2023/04/12 03:54:45;;;;;;;7.90;1.95;;;6.90;99.90;;;;;;5057060;28;20188;-85
2023/04/12 03:57:11;;;;;;;3.75;1.35;;;6.90;99.90;;;;;;5061061;28;20056;-85
2023/04/12 03:59:36;;;;;;;12.63;2.05;;;6.90;99.90;;;;;;5055052;28;20082;-85
2023/04/12 04:02:04;;;;;;;7.03;1.73;;;6.90;99.90;;;;;;5063461;28;20456;-85
2023/04/12 04:04:29;;;;;;;5.03;1.65;;;6.90;99.90;;;;;;5062804;28;20040;-85
2023/04/12 04:06:55;;;;;;;10.57;2.28;;;7.00;99.90;;;;;;5058741;28;20032;-85
2023/04/12 04:09:21;;;;;;;13.10;1.95;;;7.00;99.90;;;;;;5062512;28;20622;-84
2023/04/12 04:11:46;;;;;;;11.90;2.03;;;6.90;99.90;;;;;;5060556;28;20030;-84
2023/04/12 04:14:13;;;;;;;4.43;1.63;;;7.00;99.90;;;;;;5059247;28;20033;-85
2023/04/12 04:16:39;;;;;;;6.13;1.90;;;7.00;99.90;;;;;;5061860;28;20028;-84
2023/04/12 04:19:04;;;;;;;8.52;2.00;;;7.00;99.90;;;;;;5059745;28;20055;-84
2023/04/12 04:21:31;;;;;;;7.65;1.85;;;7.00;99.90;;;;;;5061568;28;20324;-84
2023/04/12 04:24:00;;;;;;;6.32;2.00;;;7.00;99.90;;;;;;5063196;28;20056;-84
2023/04/12 04:26:32;;;;;;;7.70;2.15;;;7.00;99.90;;;;;;5060313;28;20109;-85
2023/04/12 04:29:02;;;;;;;5.00;2.10;;;7.00;99.90;;;;;;5057837;28;20066;-84
2023/04/12 04:31:35;;;;;;;8.05;2.38;;;7.00;99.90;;;;;;5062642;28;20722;-84
2023/04/12 04:34:04;;;;;;;4.25;1.80;;;7.00;99.90;;;;;;5062698;28;20028;-84
2023/04/12 04:36:32;;;;;;;6.00;1.88;;;7.00;99.90;;;;;;5058658;28;20048;-82
2023/04/12 04:38:58;;;;;;;7.32;1.58;;;7.00;99.90;;;;;;5054665;28;20025;-82
2023/04/12 04:41:24;;;;;;;6.78;1.95;;;7.00;99.90;;;;;;5061798;28;20512;-83
2023/04/12 04:43:50;;;;;;;8.40;1.88;;;7.00;99.90;;;;;;5063173;28;20024;-84
2023/04/12 04:46:19;;;;;;;5.65;1.95;;;7.10;99.90;;;;;;5061522;28;20047;-83
2023/04/12 04:48:48;;;;;;;5.68;1.60;;;7.10;99.90;;;;;;5066357;28;20028;-84
2023/04/12 04:51:14;;;;;;;8.75;2.17;;;7.10;99.90;;;;;;5069633;28;20040;-82
2023/04/12 04:53:40;;;;;;;8.45;2.85;;;7.10;99.90;;;;;;5062948;28;20033;-84
2023/04/12 04:56:06;;;;;;;6.65;2.17;;;7.10;99.90;;;;;;5064206;28;20496;-84
2023/04/12 04:58:32;;;;;;;8.23;1.80;;;7.10;99.90;;;;;;5062350;28;20025;-84
2023/04/12 05:00:58;;;;;;;7.90;1.73;;;7.10;99.90;;;;;;5070089;28;20258;-84
2023/04/12 05:03:27;;;;;;;8.00;2.35;;;7.10;99.90;;;;;;5066789;28;21123;-83
2023/04/12 05:05:54;;;;;;;11.25;2.95;;;7.20;99.90;;;;;;5064384;28;20044;-84
2023/04/12 05:08:20;;;;;;;7.45;2.08;;;7.20;99.90;;;;;;5067339;28;20258;-84
2023/04/12 05:10:53;;;;;;;15.38;1.80;;;7.20;99.90;;;;;;5066155;28;20040;-83
2023/04/12 05:13:20;;;;;;;8.93;2.25;;;7.20;99.90;;;;;;5067950;28;20024;-83
2023/04/12 05:15:46;;;;;;;12.40;2.25;;;7.20;99.90;;;;;;5060205;28;20071;-82
2023/04/12 05:18:13;;;;;;;5.20;1.80;;;7.20;99.90;;;;;;5067040;28;20064;-83
2023/04/12 05:20:38;;;;;;;10.10;2.08;;;7.20;99.90;;;;;;5059145;28;20029;-84
2023/04/12 05:23:04;;;;;;;5.78;2.10;;;7.20;99.90;;;;;;5062533;28;20035;-84
2023/04/12 05:25:29;;;;;;;7.35;2.25;;;7.20;99.90;;;;;;5066279;28;20035;-83
2023/04/12 05:27:55;;;;;;;8.30;2.53;;;7.20;99.90;;;;;;5069104;28;20052;-83
2023/04/12 05:30:21;;;;;;;8.73;2.10;;;7.20;99.90;;;;;;5069770;28;20016;-83
2023/04/12 05:32:47;;;;;;;6.70;2.13;;;7.20;99.90;;;;;;5061949;28;20524;-83
2023/04/12 05:35:12;;;;;;;8.02;1.73;;;7.20;99.90;;;;;;5063628;28;20140;-83
2023/04/12 05:37:38;;;;;;;7.35;2.40;;;7.20;99.90;;;;;;5067936;28;20024;-83
2023/04/12 05:40:08;;;;;;;8.25;1.95;;;7.20;99.90;;;;;;5064668;28;20048;-83
2023/04/12 05:42:35;;;;;;;12.85;2.30;;;7.20;99.90;;;;;;5061161;28;20033;-83
2023/04/12 05:45:02;;;;;;;6.57;1.70;;;7.30;99.90;;;;;;5064573;28;20067;-84
2023/04/12 05:47:29;;;;;;;8.38;2.40;;;7.30;99.90;;;;;;5069197;28;20039;-83
2023/04/12 05:49:54;;;;;;;7.78;2.25;;;7.30;99.90;;;;;;5062558;28;20056;-83
2023/04/12 05:52:20;;;;;;;10.93;2.25;;;7.30;99.90;;;;;;5059399;28;20056;-84
2023/04/12 05:54:46;;;;;;;7.22;2.00;;;7.40;99.90;;;;;;5066838;28;20431;-85
2023/04/12 05:57:11;;;;;;;8.93;2.25;;;7.40;99.90;;;;;;5067461;28;20503;-84
2023/04/12 05:59:40;;;;;;;10.07;1.85;;;7.40;99.90;;;;;;5060794;28;20262;-85
2023/04/12 06:02:06;;;;;;;6.32;1.90;;;7.40;99.90;;;;;;5057550;28;20045;-87
2023/04/12 06:04:32;;;;;;;9.25;2.28;;;7.40;99.90;;;;;;5063184;28;20524;-85
2023/04/12 06:06:57;;;;;;;5.38;1.85;;;7.50;99.90;;;;;;5062272;28;20311;-85
2023/04/12 06:09:24;;;;;;;8.07;2.25;;;7.60;99.90;;;;;;5058253;28;20031;-83
2023/04/12 06:11:52;;;;;;;7.47;2.28;;;7.70;99.90;;;;;;5057616;28;20037;-81
2023/04/12 06:14:17;;;;;;;9.95;2.55;;;7.70;99.90;;;;;;5057907;28;20028;-83
2023/04/12 06:16:43;;;;;;;9.13;2.33;;;7.70;99.90;;;;;;5060416;28;20271;-81
2023/04/12 06:19:09;;;;;;;12.60;2.47;;;7.80;99.90;;;;;;5062552;28;20047;-83
2023/04/12 06:21:35;;;;;;;20.58;4.30;;;7.80;99.90;;;;;;5061169;28;20416;-81
2023/04/12 06:24:01;;;;;;;8.55;2.17;;;7.90;99.90;;;;;;5053709;28;20048;-82
2023/04/12 06:26:26;;;;;;;11.23;2.50;;;8.00;99.90;;;;;;5059075;28;20037;-83
2023/04/12 06:28:52;;;;;;;6.70;2.33;;;8.10;99.90;;;;;;5056676;28;20083;-82
2023/04/12 06:31:17;;;;;;;5.25;1.77;;;8.20;99.90;;;;;;5054607;28;20038;-82
2023/04/12 06:33:43;;;;;;;16.63;2.22;;;8.20;99.90;;;;;;5059400;28;20021;-83
2023/04/12 06:36:10;;;;;;;13.32;2.22;;;8.20;99.90;;;;;;5061804;28;20027;-82
2023/04/12 06:38:36;;;;;;;11.18;2.72;;;8.30;99.90;;;;;;5063874;28;20117;-83
2023/04/12 06:41:01;;;;;;;11.07;2.10;;;8.30;99.90;;;;;;5060525;28;20551;-82
2023/04/12 06:43:27;;;;;;;12.07;2.28;;;8.40;99.90;;;;;;5058227;28;20308;-81
2023/04/12 06:45:53;;;;;;;4.80;1.75;;;8.40;99.90;;;;;;5062183;28;20088;-85
2023/04/12 06:48:18;;;;;;;6.75;2.00;;;8.40;99.90;;;;;;5060463;28;20024;-81
2023/04/12 06:50:44;;;;;;;11.43;2.55;;;8.50;99.90;;;;;;5061780;28;20040;-82
2023/04/12 06:53:12;;;;;;;12.40;2.45;;;8.50;99.90;;;;;;5060204;28;20021;-82
2023/04/12 06:55:38;;;;;;;8.43;2.55;;;8.50;99.90;;;;;;5056521;28;20031;-84
2023/04/12 06:58:03;;;;;;;12.20;3.05;;;8.60;99.90;;;;;;5058218;28;20020;-85
2023/04/12 07:00:29;;;;;;;9.00;2.17;;;8.70;99.90;;;;;;5065897;28;20432;-82
2023/04/12 07:02:54;;;;;;;4.95;1.83;;;8.70;99.90;;;;;;5053287;28;20045;-82
2023/04/12 07:05:20;;;;;;;12.68;2.78;;;8.80;99.90;;;;;;5057892;28;20051;-81
2023/04/12 07:07:46;;;;;;;8.35;2.05;;;8.80;99.90;;;;;;5062493;28;20060;-82
2023/04/12 07:10:11;;;;;;;7.40;2.13;;;8.90;99.90;;;;;;5059523;28;20024;-83
2023/04/12 07:12:37;;;;;;;16.48;3.10;;;9.00;99.90;;;;;;5057270;28;20043;-82
2023/04/12 07:15:03;;;;;;;16.23;2.78;;;9.10;99.90;;;;;;5063967;28;20063;-86
2023/04/12 07:17:29;;;;;;;16.15;2.40;;;9.20;99.90;;;;;;5061535;28;20029;-82
2023/04/12 07:19:55;;;;;;;8.85;3.30;;;9.30;99.90;;;;;;5056782;28;20586;-82
2023/04/12 07:22:21;;;;;;;10.98;2.20;;;9.30;99.90;;;;;;5057515;28;20119;-83
2023/04/12 07:24:48;;;;;;;11.55;2.50;;;9.40;99.90;;;;;;5061184;28;20039;-85
2023/04/12 07:27:14;;;;;;;11.27;2.35;;;9.50;99.90;;;;;;5056522;28;20043;-87
2023/04/12 07:29:40;;;;;;;16.48;2.45;;;9.60;99.90;;;;;;5059490;28;20390;-85
2023/04/12 07:32:06;;;;;;;12.82;2.17;;;9.70;99.90;;;;;;5060144;28;20028;-82
2023/04/12 07:34:32;;;;;;;10.75;2.65;;;9.80;99.90;;;;;;5065218;28;20025;-81
2023/04/12 07:36:59;;;;;;;5.75;2.00;;;9.80;99.90;;;;;;5064913;28;20025;-82
2023/04/12 07:39:25;;;;;;;14.98;2.45;;;9.90;99.90;;;;;;5058881;28;20040;-81
2023/04/12 07:41:51;;;;;;;13.77;2.47;;;9.90;99.90;;;;;;5061940;28;20044;-82
2023/04/12 07:44:17;;;;;;;12.60;2.45;;;10.00;99.90;;;;;;5059201;28;20040;-82
2023/04/12 07:46:43;;;;;;;11.82;2.38;;;10.10;99.90;;;;;;5066571;28;20040;-81
2023/04/12 07:49:09;;;;;;;12.73;2.90;;;10.10;99.90;;;;;;5061727;28;20086;-89
2023/04/12 07:51:35;;;;;;;12.27;2.63;;;10.10;99.90;;;;;;5056725;28;20028;-81
2023/04/12 07:54:01;;;;;;;13.95;2.90;;;10.20;99.90;;;;;;5064997;28;20107;-84
2023/04/12 07:56:26;;;;;;;13.88;2.40;;;10.20;99.90;;;;;;5054520;28;20051;-86
2023/04/12 07:58:52;;;;;;;5.63;1.77;;;10.20;99.90;;;;;;5056761;28;20028;-82
2023/04/12 08:01:18;;;;;;;10.10;2.58;;;10.20;99.90;;;;;;5059665;28;20071;-82
2023/04/12 08:03:44;;;;;;;6.00;1.92;;;10.10;99.90;;;;;;5056542;28;20029;-83
2023/04/12 08:06:09;;;;;;;11.60;2.42;;;10.10;99.90;;;;;;5055496;28;20044;-83
2023/04/12 08:08:35;;;;;;;4.93;2.17;;;10.10;99.90;;;;;;5056282;28;20083;-82
2023/04/12 08:11:03;;;;;;;10.88;2.42;;;10.10;99.90;;;;;;5057165;28;20033;-83
2023/04/12 08:13:29;;;;;;;6.70;2.42;;;10.10;99.90;;;;;;5059593;28;20032;-80
2023/04/12 08:15:54;;;;;;;7.88;2.05;;;10.20;99.90;;;;;;5058885;28;20055;-81
2023/04/12 08:18:20;;;;;;;6.95;2.40;;;10.20;99.90;;;;;;5053843;28;20035;-84
2023/04/12 08:20:48;;;;;;;12.95;2.90;;;10.30;99.90;;;;;;5057151;28;20027;-82
2023/04/12 08:23:13;;;;;;;12.00;2.35;;;10.30;99.90;;;;;;5053579;28;20025;-82
2023/04/12 08:25:40;;;;;;;6.95;2.30;;;10.30;99.90;;;;;;5058622;28;20036;-84
2023/04/12 08:28:08;;;;;;;8.25;2.10;;;10.20;99.90;;;;;;5061555;28;20524;-85
2023/04/12 08:30:34;;;;;;;9.25;2.38;;;10.30;99.90;;;;;;5058148;28;20021;-87
2023/04/12 08:33:00;;;;;;;13.18;2.25;;;10.20;99.90;;;;;;5059017;28;20035;-85
2023/04/12 08:35:26;;;;;;;19.35;2.35;;;10.30;99.90;;;;;;5055466;28;20111;-83
2023/04/12 08:37:51;;;;;;;6.95;2.40;;;10.20;99.90;;;;;;5062545;28;20063;-83
2023/04/12 08:40:17;;;;;;;10.40;3.08;;;10.20;99.90;;;;;;5061082;28;20037;-82
2023/04/12 08:42:43;;;;;;;18.10;3.25;;;10.10;99.90;;;;;;5057815;28;20352;-86
2023/04/12 08:45:13;;;;;;;13.43;2.72;;;10.20;99.90;;;;;;5056170;28;20032;-83
2023/04/12 08:47:41;;;;;;;13.35;3.03;;;10.20;99.90;;;;;;5066277;28;20063;-83
2023/04/12 08:50:08;;;;;;;11.05;2.95;;;10.20;99.90;;;;;;5058745;28;20045;-84
2023/04/12 08:52:35;;;;;;;15.52;3.25;;;10.20;99.90;;;;;;5056797;28;20474;-84
2023/04/12 08:55:03;;;;;;;12.07;3.88;;;10.30;99.90;;;;;;5059849;28;20024;-81
2023/04/12 08:57:28;;;;;;;7.70;2.55;;;10.40;99.90;;;;;;5056086;28;20024;-81
2023/04/12 08:59:55;;;;;;;9.02;2.67;;;10.40;99.90;;;;;;5060045;28;20087;-82
2023/04/12 09:02:21;;;;;;;7.75;2.72;;;10.50;99.90;;;;;;5059353;28;20052;-81
2023/04/12 09:04:51;;;;;;;19.70;3.40;;;10.50;99.90;;;;;;5052890;28;20486;-80
2023/04/12 09:07:17;;;;;;;14.13;4.47;;;10.60;99.90;;;;;;5060322;28;20112;-81
2023/04/12 09:09:46;;;;;;;8.57;3.15;;;10.70;99.90;;;;;;5058740;28;20541;-83
2023/04/12 09:12:14;;;;;;;8.88;2.50;;;10.70;99.90;;;;;;5063387;28;20032;-83
2023/04/12 09:14:42;;;;;;;13.73;3.20;;;10.70;99.90;;;;;;5064255;28;20413;-84
2023/04/12 09:17:39;;;;;;;8.32;2.47;;;10.80;99.90;;;;;;5063800;28;20124;-86
2023/04/12 09:20:11;;;;;;;8.60;2.83;;;10.70;99.90;;;;;;5046172;28;20052;-84
2023/04/12 09:22:43;;;;;;;12.13;3.10;;;10.70;99.90;;;;;;5058433;28;20028;-82
2023/04/12 09:25:09;;;;;;;11.73;3.40;;;10.70;99.90;;;;;;5051070;28;20395;-81
2023/04/12 09:27:52;;;;;;;8.40;2.85;;;10.70;99.90;;;;;;5062855;28;20123;-82
2023/04/12 09:30:19;;;;;;;12.35;3.08;;;10.60;99.90;;;;;;5060973;28;20111;-80
2023/04/12 09:32:45;;;;;;;6.10;2.17;;;10.60;99.90;;;;;;5057351;28;20491;-81
2023/04/12 09:35:10;;;;;;;8.38;2.33;;;10.70;99.90;;;;;;5055885;28;20033;-83
2023/04/12 09:37:36;;;;;;;8.40;2.30;;;10.70;99.90;;;;;;5066542;28;20031;-81
2023/04/12 09:40:07;;;;;;;10.55;2.42;;;10.70;99.90;;;;;;5065109;28;20048;-85
2023/04/12 09:42:35;;;;;;;6.65;2.22;;;10.70;99.90;;;;;;5068057;28;20100;-87
2023/04/12 09:45:27;;;;;;;7.68;2.40;;;10.70;99.90;;;;;;5065497;28;20109;-87
2023/04/12 09:47:54;;;;;;;7.28;1.67;;;10.60;99.90;;;;;;5061546;28;20123;-81
2023/04/12 09:50:25;;;;;;;13.77;2.90;;;10.60;99.90;;;;;;5062650;28;20029;-83
2023/04/12 09:52:52;;;;;;;8.95;2.15;;;10.60;99.90;;;;;;5067317;28;20442;-80
2023/04/12 09:55:19;;;;;;;11.95;1.77;;;10.60;99.90;;;;;;5064052;28;20082;-82
2023/04/12 09:57:45;;;;;;;7.15;2.03;;;10.50;99.90;;;;;;5065602;28;20039;-81
2023/04/12 10:00:16;;;;;;;8.88;2.22;;;10.50;99.90;;;;;;5062895;28;20343;-82
2023/04/12 10:02:43;;;;;;;7.05;2.30;;;10.50;99.90;;;;;;5057531;28;20119;-83
2023/04/12 10:05:14;;;;;;;4.38;2.00;;;10.50;99.90;;;;;;5056338;28;20031;-80
2023/04/12 10:07:43;;;;;;;13.90;2.92;;;10.40;99.90;;;;;;5060881;28;20033;-81
2023/04/12 10:10:14;;;;;;;5.93;2.15;;;10.40;99.90;;;;;;5064162;28;20036;-80
2023/04/12 10:12:41;;;;;;;11.48;1.92;;;10.30;99.90;;;;;;5060978;28;20029;-84
2023/04/12 10:15:12;;;;;;;12.85;1.95;;;10.20;99.90;;;;;;5060832;28;20075;-83
2023/04/12 10:17:44;;;;;;;10.00;2.28;;;10.20;99.90;;;;;;5060525;28;20032;-82
2023/04/12 10:20:10;;;;;;;6.05;2.10;;;10.10;99.90;;;;;;5062005;28;20021;-82
2023/04/12 10:22:42;;;;;;;15.05;3.25;;;10.00;99.90;;;;;;5063212;28;20024;-79
2023/04/12 10:25:29;;;;;;;4.53;2.00;;;9.90;99.90;;;;;;5062404;28;20050;-80
2023/04/12 10:27:55;;;;;;;8.20;2.55;;;9.90;99.90;;;;;;5059200;28;20072;-84
2023/04/12 10:30:29;;;;;;;10.63;2.33;;;9.80;99.90;;;;;;5062728;28;20094;-83
2023/04/12 10:33:04;;;;;;;20.02;3.05;;;9.80;99.90;;;;;;5064602;28;20024;-81
2023/04/12 10:35:55;;;;;;;12.82;2.53;;;9.70;99.90;;;;;;5060659;28;20031;-83
2023/04/12 10:38:23;;;;;;;14.10;3.22;;;9.70;99.90;;;;;;5059249;28;20079;-81
2023/04/12 10:41:10;;;;;;;14.82;3.03;;;9.60;99.90;;;;;;5059207;28;20040;-81
2023/04/12 10:43:36;;;;;;;7.30;2.20;;;9.60;99.90;;;;;;5061620;28;20028;-83
2023/04/12 10:46:05;;;;;;;13.02;2.90;;;9.50;99.90;;;;;;5063345;28;20089;-84
2023/04/12 10:48:49;;;;;;;7.57;2.63;;;9.40;99.90;;;;;;5058454;28;20046;-84
2023/04/12 10:51:26;;;;;;;10.75;2.65;;;9.40;99.90;;;;;;5057814;28;20465;-82
2023/04/12 10:54:11;;;;;;;6.10;2.28;;;9.30;99.90;;;;;;5058672;28;20377;-83
2023/04/12 10:56:38;;;;;;;8.23;2.67;;;9.20;99.90;;;;;;5056774;28;20453;-81
2023/04/12 10:59:06;;;;;;;5.18;2.25;;;9.20;99.90;;;;;;5061206;28;20400;-81
2023/04/12 11:01:31;;;;;;;8.55;2.00;;;9.20;99.90;;;;;;5056181;28;20039;-81
2023/04/12 11:04:17;;;;;;;4.22;2.08;;;9.10;99.90;;;;;;5058776;28;20474;-82
2023/04/12 11:06:46;;;;;;;11.10;2.30;;;9.10;99.90;;;;;;5058280;28;20119;-83
2023/04/12 11:09:25;;;;;;;7.63;2.30;;;9.10;99.90;;;;;;5061096;28;20020;-83
2023/04/12 11:12:04;;;;;;;4.10;1.98;;;9.10;99.90;;;;;;5058542;28;20078;-81
2023/04/12 11:14:37;;;;;;;4.53;1.90;;;9.10;99.90;;;;;;5059543;28;20024;-82
2023/04/12 11:17:05;;;;;;;3.50;2.08;;;9.10;99.90;;;;;;5063913;28;20017;-84
2023/04/12 11:19:50;;;;;;;6.78;1.77;;;9.10;99.90;;;;;;5059500;28;20016;-85
2023/04/12 11:22:19;;;;;;;4.35;2.03;;;9.00;99.90;;;;;;5054857;28;20207;-87
2023/04/12 11:24:50;;;;;;;10.32;2.85;;;9.00;99.90;;;;;;5055260;28;20058;-83
2023/04/12 11:27:18;;;;;;;3.85;2.00;;;9.00;99.90;;;;;;5051154;28;20040;-85
2023/04/12 11:29:49;;;;;;;4.57;2.00;;;9.00;99.90;;;;;;5056641;28;20028;-82
2023/04/12 11:32:15;;;;;;;6.32;2.38;;;9.00;99.90;;;;;;5060107;28;20104;-82
2023/04/12 11:34:43;;;;;;;7.00;2.20;;;9.00;99.90;;;;;;5060522;28;20108;-83
2023/04/12 11:37:09;;;;;;;4.75;2.47;;;9.00;99.90;;;;;;5058689;28;20268;-91
2023/04/12 11:39:40;;;;;;;3.70;2.08;;;9.00;99.90;;;;;;5058157;28;20426;-82
2023/04/12 11:42:07;;;;;;;5.80;2.08;;;9.00;99.90;;;;;;5061353;28;20135;-82
2023/04/12 11:44:34;;;;;;;8.77;2.75;;;9.00;99.90;;;;;;5053510;28;20032;-83
2023/04/12 11:47:00;;;;;;;5.35;2.17;;;9.00;99.90;;;;;;5057272;28;20037;-82
2023/04/12 11:49:29;;;;;;;9.75;2.42;;;8.90;99.90;;;;;;5056721;28;20078;-90
2023/04/12 11:52:03;;;;;;;4.25;2.88;;;8.90;99.90;;;;;;5061185;28;20027;-85
2023/04/12 11:54:29;;;;;;;6.70;2.85;;;8.90;99.90;;;;;;5056704;28;20485;-85
2023/04/12 11:56:59;;;;;;;12.20;2.97;;;8.90;99.90;;;;;;5060071;28;20444;-85
2023/04/12 11:59:32;;;;;;;9.18;2.50;;;8.90;99.90;;;;;;5064529;28;20016;-87
2023/04/12 12:02:03;;;;;;;4.40;1.80;;;8.90;99.90;;;;;;5061994;28;20514;-88
2023/04/12 12:04:30;;;;;;;4.10;2.05;;;8.80;99.90;;;;;;5062657;28;20024;-89
2023/04/12 12:06:57;;;;;;;4.38;2.50;;;8.80;99.90;;;;;;5080306;28;20419;-84
2023/04/12 12:09:25;;;;;;;3.40;2.20;;;8.80;99.90;;;;;;5061656;28;20107;-86
2023/04/12 12:11:51;;;;;;;12.13;2.30;;;8.70;99.90;;;;;;5057776;28;20033;-87
2023/04/12 12:14:23;;;;;;;2.10;1.67;;;8.70;99.90;;;;;;5061182;28;20027;-84
2023/04/12 12:16:54;;;;;;;9.70;2.65;;;8.70;99.90;;;;;;5065290;28;20404;-85
2023/04/12 12:19:36;;;;;;;8.65;2.70;;;8.70;99.90;;;;;;5061340;28;20310;-88
2023/04/12 12:22:19;;;;;;;7.72;3.05;;;8.60;99.90;;;;;;5061569;28;20050;-91
2023/04/12 12:24:54;;;;;;;6.10;2.63;;;8.60;99.90;;;;;;5058195;28;20380;-83
2023/04/12 12:27:36;;;;;;;5.95;3.33;;;8.70;99.90;;;;;;5059909;28;20032;-87
2023/04/12 12:30:04;;;;;;;3.78;2.97;;;8.60;99.90;;;;;;5057886;28;20033;-88
2023/04/12 12:32:34;;;;;;;7.10;3.00;;;8.60;99.90;;;;;;5060505;28;20489;-87
2023/04/12 12:35:00;;;;;;;10.90;3.63;;;8.60;99.90;;;;;;5060891;28;20093;-86
2023/04/12 12:37:27;;;;;;;5.85;2.80;;;8.60;99.90;;;;;;5055467;28;20020;-86
2023/04/12 12:40:12;;;;;;;4.88;2.53;;;8.60;99.90;;;;;;5062221;28;20112;-86
2023/04/12 12:42:44;;;;;;;4.53;2.90;;;8.60;99.90;;;;;;5060642;28;20027;-86
2023/04/12 12:45:11;;;;;;;5.47;2.70;;;8.60;99.90;;;;;;5058384;28;20029;-87
2023/04/12 12:47:47;;;;;;;5.32;2.90;;;8.60;99.90;;;;;;5061620;28;20032;-85
2023/04/12 12:50:16;;;;;;;8.25;2.72;;;8.70;99.90;;;;;;5058660;28;20466;-87
2023/04/12 12:52:43;;;;;;;5.30;2.65;;;8.70;99.90;;;;;;5060417;28;20024;-87
2023/04/12 12:55:09;;;;;;;4.75;2.75;;;8.70;99.90;;;;;;5058296;28;20377;-86
2023/04/12 12:57:35;;;;;;;9.43;2.65;;;8.70;99.90;;;;;;5063172;28;20025;-85
2023/04/12 13:00:03;;;;;;;3.85;2.55;;;8.70;99.90;;;;;;5057773;28;20023;-85